Raton, NM

12:01 PM MDT on July 11, 2014 (GMT -0600)
Near Historic Downtown (KNMRATON4) Elev 6709 ft | 36.90 °N, 104.44 °W | Change Station

Current weather conditions updated 11 minutes ago

Clear
Clear
83.9 °F
Feels Like 83 °F
N
0.0
Wind Variable Wind from SE

Today is forecast to be Cooler than yesterday.

Today
High -- | Low -- °F
--% Chance of Precip.
Yesterday
High -- | Low -- °F
Precip. -- in
5:48 AM 8:19 PM
Waxing Gibbous, 99% visible
Pressure 30.23 in
Visibility 10.0 miles
Clouds Clear
Heat Index 83 °F
Dew Point 56 °F
Humidity 39%
Rainfall 0.00 in
Snow Depth Not available.
UV 12 out of 12
Pollen 5.60 out of 12
Air Quality Not available.
Flu Activity Sporadic
METAR KRTN 111753Z AUTO 17008G15KT 10SM CLR 28/09 A3023 RMK AO2 SLPNO T02830094 58008

More Conditions Fewer Conditions

Pressure 30.23 in
Visibility 10.0 miles
Clouds Clear
Heat Index 83 °F
Dew Point 56 °F
Humidity 39%
Rainfall 0.00 in
Snow Depth Not available.
UV 12 out of 12
Pollen 5.60 out of 12
Air Quality Not available.
Flu Activity Sporadic
METAR KRTN 111753Z AUTO 17008G15KT 10SM CLR 28/09 A3023 RMK AO2 SLPNO T02830094 58008

More Conditions Fewer Conditions

10-Day Weather Forecast

Almanac

Astronomy

Jul. 11, 2014 Rise Set
Actual Time 5:48 AM MDT 8:19 PM MDT
Civil Twilight 5:18 AM MDT 8:49 PM MDT
Nautical Twilight 4:40 AM MDT 9:26 PM MDT
Astronomical Twilight 3:59 AM MDT 10:08 PM MDT
Moon 7:33 PM MDT 5:01 AM MDT
Length of Visible Light 15h 31m
Length of Day
14h 30m
Tomorrow will be 1m 2s shorter.
Waxing Gibbous, 99% of the Moon is Illuminated
Today
Waxing Gibbous
Jul 12
Full
Jul 18
Last Quarter
Jul 26
New
Aug 3
First Quarter

Today's Extremes

State Highs State Lows

Community

WunderPhotos

Upload Photos

1,732,537 photos uploaded!

Nearby

Snow Depth

Station Depth Elevation
North Costilla 0 in 10600 ft
Chamita 0 in 8400 ft
Senorita Divide #2 0 in 8600 ft
Sierra Blanca 0 in 10280 ft
Silver Creek Divide 0 in 9000 ft

Earthquake Activity

City Distance Mag. Time & Date
No recent earthquake activity has been reported nearby.
Minimum magnitude displayed is 2.5.

Coastal Water Temperatures

Place Temperature
No Stations Reporting

Nearby Weather Stations

Station Location Temp. Heat Index Dew Point Humidity Wind Precip. Elev Updated Type
Near Historic Downtown, Raton, NM 83.9 °F 83 °F 56 °F 39% SE  at  0.0 mph - / hr 6709 ft 11:50 AM MDT Normal
RAWS BOSQUE CO, Weston, CO 79 °F 79 °F 46 °F 31% ESE  at  3 mph 0.00 in / hr 8173 ft 10:26 AM MDT MADIS
NonFedAWOS TRINCHERA , Weston, CO 68 °F - 54 °F 60% West  at  7 mph 0.00 in / hr 8229 ft 9:55 AM MDT MADIS
Elm St, Cokedale, CO 94.6 °F 93 °F 54 °F 26% South  at  2.2 mph 0.00 in / hr 6332 ft 12:00 PM MDT Normal
Near Trinidad State Junior College, Trinidad, CO 86.0 °F 84 °F 50 °F 29% NE  at  8.0 mph 0.00 in / hr 6070 ft 12:01 PM MDT Rapid Fire
HADS PURGATOIRE RIVER AT TRINIDAD CO, Trinidad, CO 82 °F 80 °F - - North  at  - 0.00 in / hr 5979 ft 10:15 AM MDT MADIS

Show More Stations Show Fewer Stations